CYCB

Cambridge Bay  Airport

Cambridge Bay, Canada

CYCB 241600Z 10010KT 1/2SM FZFG OVC002 M11/M12 A2964 RMK FG2ST6 FROIN VIS VRB 3/8 - 5/8 SLP043

Observed Flight Rules
Nov-24 @ 16:00 UTC (39 minutes ago)
 
Instrument Flight Rules
Wind Visibility Clouds Conditions
100° at 10 knots 1/2 miles
  • Overcast at 200' AGL
  • Freezing
  • Fog
Temperatures Readings
Current -11°C / 12°F
Dewpoint -12°C / 10°F
Humidity 92%
Altimeter 29.64" Hg
Pressure 1004.3 hPa
Elevation 27
Observed Flight Rules
Nov-24 @ 16:00 UTC
(39 minutes ago)
 
LIFR
Wind Visibility
100° at 10 knots 1/2 miles
Clouds
  • Overcast at 200' AGL
Conditions
  • Freezing
  • Fog
Temperature Dewpoint
-11°C / 12°F -12°C / 10°F
Humidity Altimeter Pressure
92% 29.64" Hg 1004.3 hPa